Time;durP1;ratioP1;P1;durP2;ratioP2;P2;SDS_P1;SDS_P2;PMS_P1;PMS_P2;Temp;Humidity;BMP_temperature;BMP_pressure;BME280_temperature;BME280_humidity;BME280_pressure;Samples;Min_cycle;Max_cycle;Signal;HPM_P1;HPM_P2
2021/01/06 00:01:16;;;;;;;3.00;1.07;;;3.90;87.20;;;;;;5037015;28;20476;-86
2021/01/06 00:03:42;;;;;;;3.30;1.00;;;3.90;87.20;;;;;;5055545;28;20029;-89
2021/01/06 00:06:13;;;;;;;0.10;0.10;;;3.90;87.20;;;;;;5019778;28;20432;-88
2021/01/06 00:08:43;;;;;;;2.85;0.20;;;4.00;87.20;;;;;;5023880;28;20048;-87
2021/01/06 00:11:10;;;;;;;0.57;0.37;;;4.00;87.10;;;;;;5020277;28;20036;-87
2021/01/06 00:13:36;;;;;;;3.30;0.80;;;4.00;87.20;;;;;;5047748;28;20312;-87
2021/01/06 00:16:02;;;;;;;1.03;0.40;;;4.00;87.10;;;;;;5059693;28;20033;-88
2021/01/06 00:18:29;;;;;;;3.63;1.70;;;3.90;87.10;;;;;;5032407;28;20021;-88
2021/01/06 00:20:55;;;;;;;0.17;0.13;;;3.90;87.10;;;;;;5052253;28;20048;-85
2021/01/06 00:23:22;;;;;;;0.97;0.37;;;3.90;87.10;;;;;;5019145;28;20029;-86
2021/01/06 00:25:48;;;;;;;5.23;1.23;;;3.90;87.20;;;;;;5036230;28;20029;-86
2021/01/06 00:28:17;;;;;;;0.50;0.10;;;3.90;87.10;;;;;;5035841;28;20029;-86
2021/01/06 00:30:57;;;;;;;3.17;1.33;;;3.90;87.20;;;;;;5035180;28;20029;-87
2021/01/06 00:33:29;;;;;;;1.60;0.70;;;3.90;87.20;;;;;;5020942;28;20052;-86
2021/01/06 00:35:57;;;;;;;3.90;0.97;;;3.90;87.20;;;;;;5038748;28;20033;-86
2021/01/06 00:38:24;;;;;;;2.27;0.27;;;3.90;87.20;;;;;;5039723;28;20050;-86
2021/01/06 00:40:51;;;;;;;2.93;0.70;;;3.80;87.20;;;;;;5038647;28;20435;-86
2021/01/06 00:43:17;;;;;;;2.13;1.10;;;3.80;87.10;;;;;;5039922;28;20040;-86
2021/01/06 00:45:44;;;;;;;5.83;1.30;;;3.90;87.30;;;;;;5055915;28;20459;-85
2021/01/06 00:48:10;;;;;;;2.57;0.70;;;3.90;87.10;;;;;;5023048;28;20033;-86
2021/01/06 00:50:37;;;;;;;6.43;1.27;;;3.90;87.10;;;;;;5038319;28;20048;-86
2021/01/06 00:53:05;;;;;;;2.50;1.43;;;3.90;87.00;;;;;;5038289;28;20321;-87
2021/01/06 00:55:32;;;;;;;0.50;0.17;;;4.00;87.10;;;;;;5039303;28;20052;-86
2021/01/06 00:57:58;;;;;;;1.57;0.07;;;4.00;87.10;;;;;;5022820;28;20037;-87
2021/01/06 01:00:27;;;;;;;0.30;0.10;;;3.90;87.10;;;;;;5038503;28;20041;-85
2021/01/06 01:02:53;;;;;;;5.83;0.83;;;3.90;87.10;;;;;;5056773;28;20044;-86
2021/01/06 01:05:30;;;;;;;3.90;0.60;;;3.90;87.10;;;;;;5056546;28;20324;-86
2021/01/06 01:07:57;;;;;;;2.57;0.63;;;3.90;87.20;;;;;;5039410;28;20042;-86
2021/01/06 01:10:44;;;;;;;2.37;0.87;;;3.90;87.20;;;;;;5039072;28;20028;-85
2021/01/06 01:13:15;;;;;;;2.83;0.87;;;3.90;87.10;;;;;;5056605;28;20517;-85
2021/01/06 01:15:42;;;;;;;2.60;0.75;;;3.90;87.10;;;;;;5037743;28;20044;-86
2021/01/06 01:18:12;;;;;;;2.70;0.70;;;3.90;87.10;;;;;;5039234;28;20040;-85
2021/01/06 01:20:49;;;;;;;0.63;0.43;;;3.90;87.10;;;;;;5039216;28;20165;-85
2021/01/06 01:23:17;;;;;;;2.63;0.40;;;3.90;87.10;;;;;;5036201;28;20045;-86
2021/01/06 01:25:43;;;;;;;1.90;0.67;;;3.90;87.10;;;;;;5038609;28;20447;-86
2021/01/06 01:28:11;;;;;;;1.93;0.67;;;4.00;87.10;;;;;;5022167;28;20432;-85
2021/01/06 01:30:37;;;;;;;3.13;0.73;;;4.00;87.00;;;;;;5038328;28;20041;-87
2021/01/06 01:33:04;;;;;;;5.60;1.00;;;4.00;87.10;;;;;;5037994;28;20328;-86
2021/01/06 01:35:31;;;;;;;0.73;0.53;;;4.00;87.10;;;;;;5038464;28;20420;-86
2021/01/06 01:37:58;;;;;;;1.40;0.80;;;4.00;87.10;;;;;;5038529;28;20036;-86
2021/01/06 01:40:36;;;;;;;3.53;0.77;;;3.90;87.00;;;;;;5038367;28;20048;-86
2021/01/06 01:43:06;;;;;;;2.27;1.03;;;4.00;87.10;;;;;;5038405;28;20025;-85
2021/01/06 01:45:55;;;;;;;1.83;0.83;;;4.00;87.10;;;;;;5036218;28;20029;-85
2021/01/06 01:48:30;;;;;;;2.33;1.33;;;4.10;87.10;;;;;;5027841;28;20040;-86
2021/01/06 01:50:58;;;;;;;1.87;1.13;;;4.10;87.00;;;;;;5038734;28;20029;-85
2021/01/06 01:54:00;;;;;;;2.33;0.47;;;4.10;86.80;;;;;;5038650;28;20029;-86
2021/01/06 01:56:34;;;;;;;10.43;2.37;;;4.20;86.80;;;;;;5022773;28;20047;-86
2021/01/06 01:59:00;;;;;;;8.93;1.50;;;4.20;86.70;;;;;;5031244;28;20320;-87
2021/01/06 02:01:26;;;;;;;1.40;0.47;;;4.20;86.70;;;;;;5037988;28;20030;-86
2021/01/06 02:04:01;;;;;;;6.53;1.33;;;4.20;86.70;;;;;;5038485;28;20036;-86
2021/01/06 02:06:30;;;;;;;6.17;1.90;;;4.30;86.70;;;;;;5038573;28;20316;-88
2021/01/06 02:09:01;;;;;;;6.30;1.90;;;4.30;87.40;;;;;;5038137;28;20029;-86
2021/01/06 02:11:41;;;;;;;0.73;0.57;;;4.30;86.70;;;;;;5018176;28;20049;-85
2021/01/06 02:14:31;;;;;;;12.50;1.50;;;4.20;86.70;;;;;;5019623;28;20025;-86
2021/01/06 02:17:02;;;;;;;2.37;0.93;;;4.20;86.80;;;;;;5022044;28;20030;-85
2021/01/06 02:19:39;;;;;;;;;;;4.20;86.80;;;;;;5009997;28;20320;-87
2021/01/06 02:22:06;;;;;;;3.00;0.73;;;4.20;86.90;;;;;;5028592;28;19924;-85
2021/01/06 02:24:36;;;;;;;1.60;0.77;;;4.20;86.80;;;;;;5018239;28;20036;-85
2021/01/06 02:27:03;;;;;;;1.33;0.60;;;4.20;86.80;;;;;;5018321;28;20037;-86
2021/01/06 02:29:30;;;;;;;4.53;1.30;;;4.20;86.90;;;;;;5037232;28;20044;-85
2021/01/06 02:31:56;;;;;;;2.00;0.57;;;4.10;86.90;;;;;;5037065;28;20040;-85
2021/01/06 02:34:23;;;;;;;1.80;1.07;;;4.00;87.00;;;;;;5027005;28;20033;-85
2021/01/06 02:36:49;;;;;;;3.63;0.70;;;4.00;87.10;;;;;;5023014;28;20446;-85
2021/01/06 02:39:15;;;;;;;0.13;0.13;;;3.90;87.10;;;;;;5036338;28;20316;-85
2021/01/06 02:41:42;;;;;;;1.70;0.93;;;3.90;87.10;;;;;;5053702;28;20037;-85
2021/01/06 02:44:09;;;;;;;1.60;0.97;;;3.90;87.10;;;;;;5036920;28;20420;-85
2021/01/06 02:46:35;;;;;;;8.07;0.70;;;3.90;87.20;;;;;;5037145;28;20040;-85
2021/01/06 02:49:02;;;;;;;0.97;0.47;;;3.90;87.10;;;;;;5036402;28;20037;-85
2021/01/06 02:51:44;;;;;;;0.73;0.30;;;3.90;87.10;;;;;;5035994;28;20421;-84
2021/01/06 02:54:12;;;;;;;0.97;0.77;;;3.90;87.10;;;;;;5023410;28;20025;-88
2021/01/06 02:56:40;;;;;;;0.67;0.53;;;3.90;87.10;;;;;;5034803;28;20454;-87
2021/01/06 02:59:07;;;;;;;0.20;0.07;;;3.90;87.80;;;;;;5037127;28;20025;-87
2021/01/06 03:01:35;;;;;;;3.03;1.60;;;3.90;87.10;;;;;;5035751;28;20045;-86
2021/01/06 03:04:02;;;;;;;1.20;0.40;;;3.80;87.00;;;;;;5052602;28;20025;-86
2021/01/06 03:06:43;;;;;;;3.90;0.40;;;3.90;87.10;;;;;;5035086;28;20451;-87
2021/01/06 03:09:24;;;;;;;0.30;0.27;;;3.90;87.10;;;;;;5036221;28;20036;-87
2021/01/06 03:11:51;;;;;;;3.22;1.55;;;3.90;87.10;;;;;;5053828;28;20531;-85
2021/01/06 03:14:17;;;;;;;2.47;1.07;;;3.80;87.10;;;;;;5047083;28;20036;-85
2021/01/06 03:16:43;;;;;;;1.13;0.10;;;3.80;87.10;;;;;;5039912;28;20048;-86
2021/01/06 03:19:10;;;;;;;0.00;0.00;;;3.80;87.10;;;;;;5020314;28;20060;-86
2021/01/06 03:21:38;;;;;;;0.27;0.23;;;3.80;87.00;;;;;;5017982;28;20425;-85
2021/01/06 03:24:05;;;;;;;2.90;0.70;;;3.80;87.00;;;;;;5039907;28;20033;-84
2021/01/06 03:26:31;;;;;;;1.07;0.73;;;3.70;87.00;;;;;;5035920;28;20033;-87
2021/01/06 03:28:57;;;;;;;2.93;0.77;;;3.80;87.10;;;;;;5021530;28;20034;-88
2021/01/06 03:31:30;;;;;;;14.33;0.63;;;3.80;87.10;;;;;;5023382;28;20048;-86
2021/01/06 03:33:59;;;;;;;0.57;0.30;;;3.80;87.00;;;;;;5036168;28;20446;-87
2021/01/06 03:36:28;;;;;;;9.77;1.53;;;3.80;87.00;;;;;;5043047;28;20036;-87
2021/01/06 03:38:58;;;;;;;4.93;0.90;;;3.80;87.00;;;;;;5036504;28;20046;-85
2021/01/06 03:41:25;;;;;;;1.98;0.68;;;3.80;87.00;;;;;;5018241;28;20034;-87
2021/01/06 03:43:55;;;;;;;2.90;0.43;;;3.80;87.00;;;;;;5017027;28;20025;-88
2021/01/06 03:46:43;;;;;;;0.57;0.28;;;3.80;87.00;;;;;;5017860;28;20155;-85
2021/01/06 03:49:28;;;;;;;0.30;0.23;;;3.70;87.00;;;;;;5054113;28;20029;-85
2021/01/06 03:52:07;;;;;;;0.70;0.50;;;3.70;87.00;;;;;;5051428;28;20457;-87
2021/01/06 03:54:40;;;;;;;2.10;0.30;;;3.70;87.10;;;;;;5016989;28;20029;-89
2021/01/06 03:57:07;;;;;;;1.93;0.67;;;3.70;87.10;;;;;;5026977;28;20037;-85
2021/01/06 03:59:34;;;;;;;0.50;0.13;;;3.70;87.10;;;;;;5036710;28;20028;-86
2021/01/06 04:02:03;;;;;;;1.67;0.80;;;3.70;87.10;;;;;;5035576;28;20045;-88
2021/01/06 04:04:33;;;;;;;1.23;0.53;;;3.70;87.10;;;;;;5044532;28;20041;-89
2021/01/06 04:07:00;;;;;;;1.50;0.70;;;3.70;87.10;;;;;;5015847;28;20022;-86
2021/01/06 04:09:29;;;;;;;3.90;1.60;;;3.70;87.10;;;;;;5016029;28;20038;-85
2021/01/06 04:12:22;;;;;;;2.10;1.23;;;3.70;87.10;;;;;;5033924;28;20033;-86
2021/01/06 04:14:48;;;;;;;0.47;0.47;;;3.70;87.00;;;;;;5013869;28;20061;-87
2021/01/06 04:17:26;;;;;;;0.50;0.33;;;3.70;87.00;;;;;;5033097;28;20048;-87
2021/01/06 04:19:59;;;;;;;0.87;0.50;;;3.70;87.00;;;;;;5036968;28;20340;-86
2021/01/06 04:22:41;;;;;;;2.20;1.10;;;3.70;87.10;;;;;;5036064;28;20459;-86
2021/01/06 04:25:27;;;;;;;0.40;0.27;;;3.70;87.00;;;;;;5036145;28;20025;-87
2021/01/06 04:27:56;;;;;;;0.20;0.10;;;3.70;87.00;;;;;;5037666;28;20040;-85
2021/01/06 04:30:32;;;;;;;1.00;0.33;;;3.70;87.00;;;;;;5035560;28;20048;-87
2021/01/06 04:32:59;;;;;;;3.17;1.13;;;3.70;87.00;;;;;;5035860;28;20033;-85
2021/01/06 04:35:26;;;;;;;3.10;1.53;;;3.70;87.00;;;;;;5035713;28;20036;-88
2021/01/06 04:37:53;;;;;;;1.43;0.70;;;3.70;87.00;;;;;;5048250;28;20038;-86
2021/01/06 04:40:23;;;;;;;1.50;0.63;;;3.70;87.00;;;;;;5033565;28;20040;-85
2021/01/06 04:42:50;;;;;;;1.60;1.00;;;3.70;87.00;;;;;;5034139;28;20048;-85
2021/01/06 04:45:22;;;;;;;0.40;0.23;;;3.70;87.70;;;;;;5051976;28;20043;-86
2021/01/06 04:48:09;;;;;;;0.30;0.30;;;3.70;87.00;;;;;;5052514;28;20041;-87
2021/01/06 04:50:54;;;;;;;3.40;1.63;;;3.80;87.00;;;;;;5036648;28;20324;-87
2021/01/06 04:53:26;;;;;;;5.63;0.73;;;3.80;87.00;;;;;;5051921;28;20029;-83
2021/01/06 04:56:17;;;;;;;2.77;1.13;;;3.80;87.00;;;;;;5035593;28;20037;-87
2021/01/06 04:58:49;;;;;;;0.30;0.30;;;3.80;87.00;;;;;;5046015;28;20289;-84
2021/01/06 05:01:28;;;;;;;2.10;1.13;;;3.80;87.00;;;;;;5030067;28;20041;-85
2021/01/06 05:04:08;;;;;;;2.30;1.07;;;3.80;87.00;;;;;;5020104;28;20037;-87
2021/01/06 05:07:13;;;;;;;2.13;0.33;;;3.70;86.90;;;;;;5034066;28;20047;-85
2021/01/06 05:10:21;;;;;;;5.37;1.20;;;3.80;87.00;;;;;;5010559;28;20040;-87
2021/01/06 05:12:48;;;;;;;3.50;1.23;;;3.70;86.90;;;;;;4972914;28;20039;-87
2021/01/06 05:15:37;;;;;;;6.47;1.00;;;3.70;86.90;;;;;;4971075;28;20030;-86
2021/01/06 05:18:04;;;;;;;5.07;0.70;;;3.70;86.90;;;;;;5001243;28;20021;-87
2021/01/06 05:20:33;;;;;;;3.53;0.53;;;3.80;87.00;;;;;;5025975;28;20049;-87
2021/01/06 05:23:01;;;;;;;7.00;1.00;;;3.80;87.70;;;;;;5041102;28;20036;-87
2021/01/06 05:25:29;;;;;;;0.67;0.43;;;3.80;86.90;;;;;;5028931;28;20044;-87
2021/01/06 05:27:56;;;;;;;2.23;0.90;;;3.80;87.00;;;;;;5049143;28;20025;-87
2021/01/06 05:30:26;;;;;;;7.00;0.83;;;3.70;86.90;;;;;;5045016;28;21019;-87
2021/01/06 05:32:59;;;;;;;0.80;0.67;;;3.80;87.00;;;;;;5063456;28;20041;-86
2021/01/06 05:35:39;;;;;;;2.57;0.70;;;3.80;87.00;;;;;;5046369;28;20033;-87
2021/01/06 05:38:06;;;;;;;8.07;1.40;;;3.80;87.00;;;;;;5045457;28;20088;-87
2021/01/06 05:40:34;;;;;;;3.90;0.83;;;3.70;86.90;;;;;;5008305;28;20036;-88
2021/01/06 05:43:04;;;;;;;5.67;0.50;;;3.70;86.90;;;;;;5022698;28;20025;-85
2021/01/06 05:45:47;;;;;;;0.43;0.43;;;3.70;86.90;;;;;;5021259;28;20033;-88
2021/01/06 05:48:43;;;;;;;6.73;1.30;;;3.70;87.00;;;;;;5038931;28;20446;-86
2021/01/06 05:51:14;;;;;;;6.23;1.20;;;3.70;87.00;;;;;;5038408;28;20029;-87
2021/01/06 05:53:54;;;;;;;2.15;0.28;;;3.70;86.90;;;;;;5038095;28;20029;-87
2021/01/06 05:56:35;;;;;;;2.10;1.30;;;3.70;86.90;;;;;;5062672;28;20033;-87
2021/01/06 05:59:20;;;;;;;1.55;0.35;;;3.70;86.90;;;;;;5045237;28;20423;-87
2021/01/06 06:02:14;;;;;;;3.07;1.27;;;3.70;86.90;;;;;;5026825;28;20162;-86
2021/01/06 06:05:33;;;;;;;4.27;1.20;;;3.70;86.90;;;;;;5041582;28;20024;-85
2021/01/06 06:08:09;;;;;;;1.00;0.80;;;3.70;86.80;;;;;;4999583;28;20135;-87
2021/01/06 06:10:41;;;;;;;1.27;0.20;;;3.70;86.80;;;;;;5059405;28;20041;-88
2021/01/06 06:13:29;;;;;;;3.43;1.50;;;3.70;86.70;;;;;;5042633;28;20037;-87
2021/01/06 06:16:23;;;;;;;6.70;1.57;;;3.70;86.80;;;;;;5065351;28;20332;-85
2021/01/06 06:18:55;;;;;;;1.30;0.57;;;3.70;86.80;;;;;;5058784;28;20041;-86
2021/01/06 06:21:46;;;;;;;0.83;0.30;;;3.70;86.80;;;;;;5063006;28;20033;-86
2021/01/06 06:24:18;;;;;;;1.20;0.73;;;3.70;86.80;;;;;;5044262;28;20037;-87
2021/01/06 06:27:20;;;;;;;1.03;0.43;;;3.70;86.80;;;;;;5060828;28;20033;-87
2021/01/06 06:30:01;;;;;;;1.20;0.90;;;3.70;86.80;;;;;;5065075;28;20033;-85
2021/01/06 06:32:31;;;;;;;4.78;0.73;;;3.70;86.80;;;;;;5054162;28;20037;-86
2021/01/06 06:35:06;;;;;;;0.97;0.83;;;3.70;86.70;;;;;;5020321;28;20044;-86
2021/01/06 06:37:33;;;;;;;3.43;0.93;;;3.70;86.70;;;;;;5035214;28;20404;-86
2021/01/06 06:39:59;;;;;;;2.67;0.83;;;3.70;86.70;;;;;;5009160;28;20029;-85
2021/01/06 06:42:31;;;;;;;4.13;1.43;;;3.70;86.70;;;;;;5037900;28;20033;-88
2021/01/06 06:45:01;;;;;;;5.63;0.97;;;3.70;86.70;;;;;;5025416;28;20040;-87
2021/01/06 06:47:49;;;;;;;4.18;0.90;;;3.80;86.80;;;;;;5030974;28;20029;-89
2021/01/06 06:50:43;;;;;;;5.10;1.20;;;3.80;86.80;;;;;;5043993;28;20045;-87
2021/01/06 06:53:29;;;;;;;0.40;0.10;;;3.80;86.70;;;;;;5021825;28;20037;-86
2021/01/06 06:56:10;;;;;;;2.50;1.07;;;3.80;86.60;;;;;;5017801;28;20049;-87
2021/01/06 06:58:42;;;;;;;6.15;2.03;;;3.80;86.60;;;;;;5034633;28;20424;-87
2021/01/06 07:01:11;;;;;;;2.30;0.80;;;3.70;86.70;;;;;;5048727;28;20067;-88
2021/01/06 07:03:38;;;;;;;1.03;0.93;;;3.80;86.80;;;;;;5028840;28;20147;-87
2021/01/06 07:06:07;;;;;;;3.80;1.50;;;3.80;86.70;;;;;;5027594;28;20347;-87
2021/01/06 07:08:44;;;;;;;1.23;0.53;;;3.80;86.70;;;;;;5019892;28;20063;-89
2021/01/06 07:11:26;;;;;;;4.77;1.23;;;3.80;86.80;;;;;;5040869;28;20021;-87
2021/01/06 07:13:56;;;;;;;;;;;3.80;86.80;;;;;;5052432;28;20040;-87
2021/01/06 07:16:35;;;;;;;0.63;0.30;;;3.80;86.80;;;;;;5034368;28;19913;-86
2021/01/06 07:19:32;;;;;;;5.47;1.43;;;3.80;86.80;;;;;;5036987;28;20032;-86
2021/01/06 07:22:33;;;;;;;3.97;1.40;;;3.80;86.80;;;;;;5038431;28;20044;-85
2021/01/06 07:25:18;;;;;;;1.50;0.50;;;3.80;86.70;;;;;;5034443;28;20037;-86
2021/01/06 07:27:55;;;;;;;3.77;0.53;;;3.80;86.60;;;;;;5051503;28;20037;-86
2021/01/06 07:30:38;;;;;;;0.93;0.50;;;3.80;86.70;;;;;;5036350;28;20329;-86
2021/01/06 07:33:24;;;;;;;3.40;1.60;;;3.80;86.70;;;;;;5054560;28;20025;-87
2021/01/06 07:35:51;;;;;;;7.70;1.37;;;3.90;86.80;;;;;;5054385;28;20025;-87
2021/01/06 07:38:18;;;;;;;0.30;0.13;;;3.80;86.80;;;;;;5036797;28;20036;-86
2021/01/06 07:40:46;;;;;;;3.07;1.97;;;3.80;86.70;;;;;;5036347;28;20041;-86
2021/01/06 07:43:23;;;;;;;0.40;0.40;;;3.80;86.80;;;;;;5035703;28;20037;-86
2021/01/06 07:46:02;;;;;;;2.63;1.23;;;3.80;86.90;;;;;;5032121;28;20040;-86
2021/01/06 07:48:45;;;;;;;1.23;0.93;;;3.70;86.80;;;;;;5054135;28;20323;-86
2021/01/06 07:51:47;;;;;;;3.37;0.97;;;3.80;86.90;;;;;;5016997;28;20033;-87
2021/01/06 07:54:38;;;;;;;1.70;0.83;;;3.80;86.90;;;;;;5011023;28;20032;-85
2021/01/06 07:57:14;;;;;;;0.17;0.15;;;3.80;86.90;;;;;;5033898;28;20055;-87
2021/01/06 07:59:48;;;;;;;2.83;0.63;;;3.70;86.80;;;;;;5036011;28;20025;-89
2021/01/06 08:02:19;;;;;;;4.37;1.33;;;3.70;86.80;;;;;;5016185;28;20049;-87
2021/01/06 08:05:01;;;;;;;1.48;0.32;;;4.00;86.90;;;;;;5018520;28;20574;-87
2021/01/06 08:07:28;;;;;;;0.50;0.40;;;4.20;86.00;;;;;;5037059;28;20042;-88
2021/01/06 08:09:54;;;;;;;5.80;1.27;;;4.10;85.90;;;;;;5048584;28;20033;-86
2021/01/06 08:12:22;;;;;;;2.50;0.87;;;4.00;86.20;;;;;;5064495;28;20032;-88
2021/01/06 08:14:49;;;;;;;0.10;0.10;;;4.00;86.40;;;;;;5061223;28;20041;-88
2021/01/06 08:17:24;;;;;;;6.20;0.87;;;3.90;86.40;;;;;;5023069;28;20474;-87
2021/01/06 08:20:04;;;;;;;0.97;0.63;;;3.90;86.60;;;;;;5025971;28;20029;-86
2021/01/06 08:22:47;;;;;;;7.43;0.70;;;3.90;86.70;;;;;;5003842;28;20045;-86
2021/01/06 08:25:40;;;;;;;2.63;0.93;;;3.90;86.70;;;;;;5017248;28;20041;-86
2021/01/06 08:28:16;;;;;;;1.73;0.80;;;3.90;86.60;;;;;;5041942;28;20554;-87
2021/01/06 08:30:43;;;;;;;6.70;0.83;;;4.00;86.60;;;;;;5033600;28;20440;-88
2021/01/06 08:33:11;;;;;;;3.33;1.03;;;4.00;86.70;;;;;;5052949;28;20029;-87
2021/01/06 08:35:43;;;;;;;5.10;0.97;;;4.00;86.60;;;;;;5035785;28;20029;-87
2021/01/06 08:38:29;;;;;;;4.00;1.03;;;4.00;86.60;;;;;;5030109;28;20048;-88
2021/01/06 08:40:56;;;;;;;2.43;0.53;;;4.00;87.40;;;;;;5016781;28;20033;-87
2021/01/06 08:43:23;;;;;;;2.27;0.77;;;4.00;86.70;;;;;;5031089;28;20033;-88
2021/01/06 08:45:58;;;;;;;4.57;1.30;;;4.00;86.70;;;;;;5032777;28;20032;-88
2021/01/06 08:48:32;;;;;;;2.50;0.80;;;4.00;86.70;;;;;;5035055;28;20018;-88
2021/01/06 08:51:14;;;;;;;6.33;1.50;;;4.10;86.60;;;;;;5018389;28;20040;-88
2021/01/06 08:53:42;;;;;;;6.07;1.90;;;4.20;86.60;;;;;;4983922;28;20581;-89
2021/01/06 08:56:11;;;;;;;1.60;0.40;;;4.20;86.30;;;;;;5019678;28;20039;-87
2021/01/06 08:58:43;;;;;;;7.90;1.13;;;4.40;85.90;;;;;;5008357;28;20527;-88
2021/01/06 09:01:46;;;;;;;2.40;1.10;;;4.60;85.40;;;;;;5009436;28;20029;-90
2021/01/06 09:04:32;;;;;;;3.27;0.83;;;4.70;85.20;;;;;;5017355;28;20056;-92
2021/01/06 09:07:08;;;;;;;1.83;0.97;;;4.80;84.90;;;;;;5049696;28;20327;-89
2021/01/06 09:09:56;;;;;;;1.70;0.30;;;4.80;84.80;;;;;;5057616;28;20037;-90
2021/01/06 09:12:49;;;;;;;1.73;1.03;;;4.80;84.70;;;;;;5021292;28;20571;-90
2021/01/06 09:15:57;;;;;;;4.70;1.57;;;4.60;85.00;;;;;;5023296;28;20052;-90
2021/01/06 09:18:35;;;;;;;4.10;1.13;;;4.50;85.50;;;;;;5040005;28;20033;-90
2021/01/06 09:21:20;;;;;;;3.53;0.77;;;4.40;85.90;;;;;;5035446;28;20029;-87
2021/01/06 09:23:50;;;;;;;7.63;1.10;;;4.40;86.00;;;;;;5039883;28;20032;-90
2021/01/06 09:26:21;;;;;;;3.67;1.52;;;4.50;85.80;;;;;;5022763;28;20059;-92
2021/01/06 09:29:04;;;;;;;2.70;0.75;;;4.50;85.80;;;;;;5021417;28;20040;-91
2021/01/06 09:31:34;;;;;;;2.13;0.90;;;4.40;85.80;;;;;;5039063;28;20029;-93
2021/01/06 09:34:00;;;;;;;3.08;1.38;;;4.50;85.80;;;;;;5024430;28;20056;-89
2021/01/06 09:36:28;;;;;;;1.83;0.37;;;4.60;85.70;;;;;;5039342;28;20029;-92
2021/01/06 09:38:54;;;;;;;0.93;0.40;;;4.60;85.50;;;;;;5022958;28;20037;-89
2021/01/06 09:41:32;;;;;;;2.40;1.63;;;4.60;85.50;;;;;;5038767;28;20033;-87
2021/01/06 09:44:04;;;;;;;1.60;0.77;;;4.60;86.20;;;;;;5004613;28;20320;-89
2021/01/06 09:47:05;;;;;;;1.23;0.30;;;4.50;85.50;;;;;;5029659;28;20036;-89
2021/01/06 09:49:55;;;;;;;6.90;0.87;;;4.50;85.60;;;;;;5037391;28;20417;-88
2021/01/06 09:52:29;;;;;;;1.57;0.93;;;4.50;85.70;;;;;;5032417;28;20052;-90
2021/01/06 09:54:56;;;;;;;4.83;0.67;;;4.60;85.70;;;;;;5038834;28;20412;-88
2021/01/06 09:57:22;;;;;;;4.50;2.17;;;4.50;85.60;;;;;;5026618;28;20053;-89
2021/01/06 09:59:53;;;;;;;2.63;0.53;;;4.50;85.50;;;;;;5031186;28;20424;-89
2021/01/06 10:02:21;;;;;;;0.70;0.20;;;4.50;85.60;;;;;;5020385;28;20363;-88
2021/01/06 10:04:48;;;;;;;1.73;1.23;;;4.40;85.60;;;;;;5054317;28;20076;-88
2021/01/06 10:07:20;;;;;;;0.40;0.20;;;4.40;85.90;;;;;;5038601;28;20420;-90
2021/01/06 10:10:07;;;;;;;2.17;0.40;;;4.40;85.70;;;;;;5020642;28;20033;-88
2021/01/06 10:12:55;;;;;;;5.90;0.87;;;4.40;85.80;;;;;;5039752;28;20056;-87
2021/01/06 10:15:37;;;;;;;1.30;0.37;;;4.50;85.70;;;;;;5036818;28;20048;-88
2021/01/06 10:18:48;;;;;;;4.63;1.87;;;4.50;85.50;;;;;;5048997;28;20043;-87
2021/01/06 10:21:22;;;;;;;5.28;0.60;;;4.60;85.40;;;;;;5038400;28;20025;-87
2021/01/06 10:24:01;;;;;;;3.00;1.00;;;4.70;85.20;;;;;;5035509;28;20048;-88
2021/01/06 10:26:53;;;;;;;1.43;0.30;;;4.70;84.90;;;;;;5035564;28;20400;-89
2021/01/06 10:29:33;;;;;;;3.50;1.57;;;4.70;84.80;;;;;;5013170;28;20041;-88
2021/01/06 10:32:11;;;;;;;0.33;0.07;;;4.80;84.90;;;;;;5024656;28;20025;-90
2021/01/06 10:34:39;;;;;;;0.97;0.97;;;4.80;84.80;;;;;;5055070;28;20667;-91
2021/01/06 10:37:09;;;;;;;0.47;0.20;;;4.80;84.90;;;;;;5051108;28;20056;-90
2021/01/06 10:39:46;;;;;;;0.30;0.20;;;4.70;84.90;;;;;;5029986;28;20336;-90
2021/01/06 10:42:22;;;;;;;6.20;0.67;;;4.70;85.10;;;;;;5023238;28;20052;-91
2021/01/06 10:45:01;;;;;;;1.77;1.03;;;4.70;85.10;;;;;;5057982;28;20359;-91
2021/01/06 10:47:30;;;;;;;2.07;0.70;;;4.80;85.10;;;;;;5028888;28;20637;-90
2021/01/06 10:50:01;;;;;;;2.00;1.13;;;4.80;85.00;;;;;;5055990;28;20032;-89
2021/01/06 10:52:36;;;;;;;3.60;0.83;;;4.90;84.90;;;;;;5022640;28;20036;-91
2021/01/06 10:55:05;;;;;;;7.30;0.83;;;4.90;84.80;;;;;;5045442;28;20037;-90
2021/01/06 10:57:47;;;;;;;5.30;0.90;;;4.90;84.80;;;;;;5050526;28;20059;-89
2021/01/06 11:00:17;;;;;;;0.90;0.40;;;4.90;84.80;;;;;;5045140;28;20049;-90
2021/01/06 11:03:09;;;;;;;0.20;0.00;;;4.90;84.70;;;;;;5038700;28;20052;-90
2021/01/06 11:05:48;;;;;;;3.43;1.03;;;4.90;84.70;;;;;;5026094;28;20438;-88
2021/01/06 11:08:35;;;;;;;1.23;0.53;;;5.00;84.80;;;;;;5044429;28;20041;-89
2021/01/06 11:11:10;;;;;;;2.17;0.77;;;5.00;84.60;;;;;;5053277;28;20047;-87
2021/01/06 11:14:00;;;;;;;2.00;1.10;;;4.90;84.60;;;;;;5054911;28;20044;-89
2021/01/06 11:16:28;;;;;;;0.40;0.37;;;4.90;84.80;;;;;;5033591;28;20063;-89
2021/01/06 11:18:56;;;;;;;11.33;2.27;;;4.80;84.90;;;;;;5037360;28;20029;-87
2021/01/06 11:21:41;;;;;;;0.60;0.47;;;4.80;85.00;;;;;;5032600;28;20578;-88
2021/01/06 11:24:31;;;;;;;1.57;1.17;;;4.80;85.10;;;;;;5004594;28;20057;-89
2021/01/06 11:26:58;;;;;;;1.90;1.13;;;4.80;85.00;;;;;;5039643;28;20052;-90
2021/01/06 11:29:30;;;;;;;1.03;0.30;;;4.80;85.00;;;;;;5022934;28;20032;-89
2021/01/06 11:31:59;;;;;;;4.60;1.40;;;4.80;85.10;;;;;;5021055;28;20336;-91
2021/01/06 11:34:31;;;;;;;6.40;1.10;;;4.80;85.10;;;;;;5037049;28;20025;-88
2021/01/06 11:36:59;;;;;;;4.87;0.90;;;4.80;85.10;;;;;;5023506;28;20040;-91
2021/01/06 11:39:28;;;;;;;1.90;0.47;;;4.80;85.10;;;;;;5038392;28;20040;-90
2021/01/06 11:41:56;;;;;;;3.90;1.23;;;4.80;85.10;;;;;;5054872;28;20051;-89
2021/01/06 11:44:22;;;;;;;4.63;1.77;;;4.80;85.20;;;;;;5020152;28;20037;-90
2021/01/06 11:46:51;;;;;;;1.57;0.90;;;4.80;85.20;;;;;;5053837;28;20045;-88
2021/01/06 11:49:46;;;;;;;4.60;1.57;;;4.80;85.20;;;;;;5052557;28;20320;-89
2021/01/06 11:52:59;;;;;;;3.33;1.00;;;4.80;85.20;;;;;;5040347;28;20474;-89
2021/01/06 11:56:42;;;;;;;1.17;0.80;;;4.70;85.10;;;;;;5029590;28;20043;-89
2021/01/06 11:59:11;;;;;;;0.43;0.17;;;4.70;85.20;;;;;;4982456;28;20042;-90
2021/01/06 12:02:00;;;;;;;3.27;1.13;;;4.70;85.00;;;;;;5027261;28;20053;-91
2021/01/06 12:04:40;;;;;;;2.90;1.07;;;4.80;85.00;;;;;;5048210;28;20059;-90
2021/01/06 12:07:34;;;;;;;2.07;1.80;;;4.80;85.00;;;;;;5039097;28;20043;-92
2021/01/06 12:10:28;;;;;;;13.87;2.03;;;4.70;84.90;;;;;;5070616;28;20021;-91
2021/01/06 12:13:22;;;;;;;0.30;0.30;;;4.80;85.10;;;;;;5059372;28;20033;-86
2021/01/06 12:16:20;;;;;;;3.13;0.83;;;4.80;85.00;;;;;;5056934;28;20013;-91
2021/01/06 12:19:17;;;;;;;0.67;0.43;;;4.80;84.90;;;;;;5076277;28;20013;-92
2021/01/06 12:22:19;;;;;;;2.50;1.47;;;4.70;84.80;;;;;;5024888;28;20462;-93
2021/01/06 12:24:52;;;;;;;0.60;0.60;;;4.70;85.00;;;;;;4953257;28;20045;-92
2021/01/06 12:27:39;;;;;;;3.80;0.77;;;4.70;85.10;;;;;;5002281;28;20048;-86
2021/01/06 12:30:11;;;;;;;0.53;0.27;;;4.70;85.20;;;;;;5036076;28;20029;-90
2021/01/06 12:32:41;;;;;;;1.97;0.70;;;4.70;85.20;;;;;;5052700;28;20036;-91
2021/01/06 12:35:19;;;;;;;0.37;0.33;;;4.70;85.00;;;;;;5024856;28;20485;-92
2021/01/06 12:38:16;;;;;;;5.90;1.57;;;4.70;85.00;;;;;;5058678;28;20039;-90
2021/01/06 12:41:10;;;;;;;4.47;0.73;;;4.70;85.10;;;;;;5026961;28;20052;-90
2021/01/06 12:43:44;;;;;;;1.03;0.30;;;4.70;85.00;;;;;;5024682;28;20032;-90
2021/01/06 12:46:32;;;;;;;4.00;0.80;;;4.80;85.10;;;;;;5039078;28;20037;-90
2021/01/06 12:49:29;;;;;;;1.40;0.93;;;4.80;85.10;;;;;;5040961;28;20029;-90
2021/01/06 12:52:14;;;;;;;3.67;0.40;;;4.70;84.90;;;;;;5017196;28;20037;-90
2021/01/06 12:54:47;;;;;;;1.37;0.80;;;4.60;84.90;;;;;;5037206;28;20447;-90
2021/01/06 12:57:20;;;;;;;2.03;1.00;;;4.60;85.10;;;;;;5034573;28;20060;-90
2021/01/06 13:00:06;;;;;;;1.90;0.63;;;4.60;85.20;;;;;;5040610;28;20029;-90
2021/01/06 13:02:36;;;;;;;4.60;0.60;;;4.60;85.20;;;;;;5039726;28;20048;-90
2021/01/06 13:05:26;;;;;;;0.80;0.25;;;4.60;85.00;;;;;;5040132;28;20037;-89
2021/01/06 13:07:55;;;;;;;2.40;1.70;;;4.60;85.00;;;;;;5040003;28;20033;-90
2021/01/06 13:10:44;;;;;;;2.33;0.73;;;4.60;85.00;;;;;;5038342;28;20037;-91
2021/01/06 13:13:27;;;;;;;7.57;1.77;;;4.60;85.00;;;;;;5039625;28;20116;-90
2021/01/06 13:16:14;;;;;;;0.87;0.67;;;4.70;84.90;;;;;;5038046;28;20028;-90
2021/01/06 13:18:51;;;;;;;0.73;0.73;;;4.70;84.70;;;;;;5021000;28;20048;-90
2021/01/06 13:21:32;;;;;;;3.83;1.83;;;4.70;84.70;;;;;;5044068;28;20056;-90
2021/01/06 13:23:58;;;;;;;4.30;1.55;;;4.70;84.70;;;;;;5037001;28;20041;-90
2021/01/06 13:26:50;;;;;;;7.93;1.00;;;4.70;84.70;;;;;;5055807;28;20029;-90
2021/01/06 13:29:22;;;;;;;6.30;0.70;;;4.70;84.70;;;;;;5024209;28;20262;-90
2021/01/06 13:32:15;;;;;;;8.53;0.97;;;4.70;84.60;;;;;;5028019;28;20333;-89
2021/01/06 13:34:48;;;;;;;2.00;1.60;;;4.80;84.60;;;;;;5021185;28;20056;-90
2021/01/06 13:37:19;;;;;;;0.50;0.30;;;4.80;84.60;;;;;;5038100;28;20060;-88
2021/01/06 13:40:09;;;;;;;2.05;1.58;;;4.70;84.50;;;;;;5037257;28;20037;-90
2021/01/06 13:42:56;;;;;;;3.17;1.47;;;4.70;84.60;;;;;;5021260;28;20045;-89
2021/01/06 13:45:52;;;;;;;1.00;0.57;;;4.80;84.70;;;;;;5037264;28;20033;-90